Rechercher aéroport 
image banner adimage banner adimage banner ad
image banner ad

99CN - Banner Lassen Medical Center

Situé à Susanville, United States

ICAO - 99CN, IATA -

Données fournies par Airmate  

Information générale

Coordonnées: N40°26'15" W120°37'43"
Élévation : 4419 feet MSL.
 
Voir autres Aéroports à California

Données opérationnelles

Special qualification required
Heure actuelle UTC:
Heure actuelle locale:
Météo à : KSVE - Susanville Muni ( 8 km )
METAR: KSVE 262315Z AUTO 27014KT 2SM HZ CLR 33/06 A2997 RMK AO2
Voir NOTAMs / SUP AIP / TFR affectant cet aéroport [VIEW]
Fréquences de communication: [VIEW]

Pistes:

Coordonnées de l'aéroport

Adresse: Susanville United States

Vue satellite de 99CN